sensor_id;sensor_type;location;lat;lon;timestamp;pressure;altitude;pressure_sealevel;temperature;humidity
68199;BME280;55021;51.554;17.044;2023-04-01T00:02:55;98752.00;;;10.12;90.06
68199;BME280;55021;51.554;17.044;2023-04-01T00:17:58;98679.72;;;9.93;87.88
68199;BME280;55021;51.554;17.044;2023-04-01T00:33:01;98714.56;;;9.67;91.34
68199;BME280;55021;51.554;17.044;2023-04-01T00:48:08;98711.31;;;9.57;91.20
68199;BME280;55021;51.554;17.044;2023-04-01T01:03:12;98728.56;;;10.19;88.88
68199;BME280;55021;51.554;17.044;2023-04-01T01:18:19;98728.00;;;10.03;89.75
68199;BME280;55021;51.554;17.044;2023-04-01T01:33:47;98730.19;;;9.93;89.32
68199;BME280;55021;51.554;17.044;2023-04-01T01:48:55;98715.44;;;10.16;88.87
68199;BME280;55021;51.554;17.044;2023-04-01T02:03:59;98720.47;;;9.98;90.22
68199;BME280;55021;51.554;17.044;2023-04-01T02:19:03;98688.25;;;9.75;92.25
68199;BME280;55021;51.554;17.044;2023-04-01T02:34:07;98699.72;;;9.77;93.17
68199;BME280;55021;51.554;17.044;2023-04-01T02:49:10;98688.66;;;9.94;92.73
68199;BME280;55021;51.554;17.044;2023-04-01T03:04:12;98704.78;;;10.08;92.36
68199;BME280;55021;51.554;17.044;2023-04-01T03:19:14;98702.84;;;9.81;93.88
68199;BME280;55021;51.554;17.044;2023-04-01T03:34:17;98694.13;;;10.49;90.08
68199;BME280;55021;51.554;17.044;2023-04-01T03:49:19;98721.53;;;10.18;92.26
68199;BME280;55021;51.554;17.044;2023-04-01T04:04:22;98734.66;;;10.21;92.11
68199;BME280;55021;51.554;17.044;2023-04-01T04:19:25;98711.84;;;10.09;91.56
68199;BME280;55021;51.554;17.044;2023-04-01T04:34:28;98749.69;;;10.30;92.92
68199;BME280;55021;51.554;17.044;2023-04-01T04:49:31;98756.09;;;10.08;93.94
68199;BME280;55021;51.554;17.044;2023-04-01T05:04:35;98754.66;;;10.48;92.29
68199;BME280;55021;51.554;17.044;2023-04-01T05:19:38;98741.13;;;10.06;94.45
68199;BME280;55021;51.554;17.044;2023-04-01T05:34:41;98775.28;;;10.77;92.59
68199;BME280;55021;51.554;17.044;2023-04-01T05:49:43;98757.56;;;10.74;92.58
68199;BME280;55021;51.554;17.044;2023-04-01T06:04:47;98782.28;;;10.44;94.87
68199;BME280;55021;51.554;17.044;2023-04-01T06:19:52;98780.13;;;10.39;94.60
68199;BME280;55021;51.554;17.044;2023-04-01T06:35:12;98796.47;;;11.01;92.97
68199;BME280;55021;51.554;17.044;2023-04-01T06:50:26;98804.56;;;10.94;94.00
68199;BME280;55021;51.554;17.044;2023-04-01T07:05:33;98759.09;;;10.13;97.40
68199;BME280;55021;51.554;17.044;2023-04-01T07:20:37;98823.81;;;10.85;95.99
68199;BME280;55021;51.554;17.044;2023-04-01T07:35:45;98830.16;;;10.98;94.84
68199;BME280;55021;51.554;17.044;2023-04-01T07:50:55;98792.16;;;10.79;95.07
68199;BME280;55021;51.554;17.044;2023-04-01T08:06:04;98844.53;;;11.27;93.70
68199;BME280;55021;51.554;17.044;2023-04-01T08:21:13;98791.63;;;10.90;94.03
68199;BME280;55021;51.554;17.044;2023-04-01T08:36:21;98863.81;;;10.68;96.27
68199;BME280;55021;51.554;17.044;2023-04-01T09:07:27;98890.63;;;11.68;94.52
68199;BME280;55021;51.554;17.044;2023-04-01T09:22:57;98914.06;;;11.20;95.09
68199;BME280;55021;51.554;17.044;2023-04-01T09:38:20;98877.09;;;11.68;93.66
68199;BME280;55021;51.554;17.044;2023-04-01T09:53:50;98932.19;;;12.09;91.50
68199;BME280;55021;51.554;17.044;2023-04-01T10:09:17;98907.69;;;12.43;88.33
68199;BME280;55021;51.554;17.044;2023-04-01T10:24:53;98944.78;;;11.95;91.08
68199;BME280;55021;51.554;17.044;2023-04-01T10:56:15;98946.53;;;13.37;86.56
68199;BME280;55021;51.554;17.044;2023-04-01T11:11:47;98932.31;;;13.68;84.51
68199;BME280;55021;51.554;17.044;2023-04-01T11:27:06;98920.59;;;13.67;78.32
68199;BME280;55021;51.554;17.044;2023-04-01T11:42:20;98950.06;;;13.24;80.25
68199;BME280;55021;51.554;17.044;2023-04-01T11:57:46;98982.69;;;12.70;84.45
68199;BME280;55021;51.554;17.044;2023-04-01T12:13:02;98997.13;;;11.68;93.59
68199;BME280;55021;51.554;17.044;2023-04-01T12:28:15;99000.22;;;12.21;92.11
68199;BME280;55021;51.554;17.044;2023-04-01T12:43:39;98996.00;;;12.46;92.56
68199;BME280;55021;51.554;17.044;2023-04-01T12:59:16;99037.41;;;11.99;93.41
68199;BME280;55021;51.554;17.044;2023-04-01T13:14:48;99061.84;;;12.05;93.78
68199;BME280;55021;51.554;17.044;2023-04-01T13:30:07;99068.63;;;12.57;89.33
68199;BME280;55021;51.554;17.044;2023-04-01T13:45:21;99077.44;;;13.13;87.41
68199;BME280;55021;51.554;17.044;2023-04-01T14:00:35;99088.22;;;13.41;85.95
68199;BME280;55021;51.554;17.044;2023-04-01T14:15:56;99095.03;;;13.23;86.97
68199;BME280;55021;51.554;17.044;2023-04-01T14:31:18;99109.03;;;13.27;83.96
68199;BME280;55021;51.554;17.044;2023-04-01T14:46:34;99097.00;;;12.95;83.48
68199;BME280;55021;51.554;17.044;2023-04-01T15:01:47;99079.16;;;11.83;86.07
68199;BME280;55021;51.554;17.044;2023-04-01T15:17:03;99168.56;;;11.83;88.78
68199;BME280;55021;51.554;17.044;2023-04-01T15:32:16;99191.13;;;11.48;89.76
68199;BME280;55021;51.554;17.044;2023-04-01T15:47:33;99201.00;;;11.20;89.94
68199;BME280;55021;51.554;17.044;2023-04-01T16:02:45;99209.28;;;10.74;89.53
68199;BME280;55021;51.554;17.044;2023-04-01T16:18:13;99247.59;;;11.00;87.18
68199;BME280;55021;51.554;17.044;2023-04-01T16:33:22;99299.19;;;10.62;88.62
68199;BME280;55021;51.554;17.044;2023-04-01T16:48:36;99317.38;;;10.00;91.60
68199;BME280;55021;51.554;17.044;2023-04-01T17:03:53;99324.59;;;10.30;90.38
68199;BME280;55021;51.554;17.044;2023-04-01T17:19:08;99349.53;;;10.17;88.90
68199;BME280;55021;51.554;17.044;2023-04-01T17:49:53;99384.34;;;10.66;87.09
68199;BME280;55021;51.554;17.044;2023-04-01T18:05:16;99410.88;;;10.09;88.98
68199;BME280;55021;51.554;17.044;2023-04-01T18:20:28;99366.91;;;9.53;88.84
68199;BME280;55021;51.554;17.044;2023-04-01T18:35:54;99455.97;;;9.69;90.05
68199;BME280;55021;51.554;17.044;2023-04-01T18:51:10;99445.56;;;9.10;92.02
68199;BME280;55021;51.554;17.044;2023-04-01T19:06:19;99483.19;;;9.36;91.87
68199;BME280;55021;51.554;17.044;2023-04-01T19:21:27;99473.19;;;9.60;89.56
68199;BME280;55021;51.554;17.044;2023-04-01T19:36:38;99476.06;;;9.43;86.28
68199;BME280;55021;51.554;17.044;2023-04-01T19:51:52;99534.13;;;9.06;87.24
68199;BME280;55021;51.554;17.044;2023-04-01T20:07:04;99520.38;;;8.59;90.12
68199;BME280;55021;51.554;17.044;2023-04-01T20:22:24;99589.38;;;8.86;91.27
68199;BME280;55021;51.554;17.044;2023-04-01T20:37:36;99602.44;;;9.15;90.79
68199;BME280;55021;51.554;17.044;2023-04-01T20:52:44;99583.38;;;8.25;93.75
68199;BME280;55021;51.554;17.044;2023-04-01T21:07:56;99629.13;;;8.17;94.72
68199;BME280;55021;51.554;17.044;2023-04-01T21:23:19;99657.88;;;7.65;96.58
68199;BME280;55021;51.554;17.044;2023-04-01T21:38:41;99643.34;;;6.77;98.21
68199;BME280;55021;51.554;17.044;2023-04-01T22:09:20;99723.44;;;6.74;98.17
68199;BME280;55021;51.554;17.044;2023-04-01T22:24:29;99714.13;;;5.93;99.31
68199;BME280;55021;51.554;17.044;2023-04-01T22:39:59;99761.44;;;5.85;98.28
68199;BME280;55021;51.554;17.044;2023-04-01T22:55:09;99760.34;;;5.68;98.31
68199;BME280;55021;51.554;17.044;2023-04-01T23:10:19;99811.84;;;5.52;97.60
68199;BME280;55021;51.554;17.044;2023-04-01T23:25:36;99831.00;;;5.38;96.50
68199;BME280;55021;51.554;17.044;2023-04-01T23:40:41;99768.59;;;5.27;96.33
68199;BME280;55021;51.554;17.044;2023-04-01T23:55:43;99817.06;;;4.74;97.94
